sensor_id;sensor_type;location;lat;lon;timestamp;P1;durP1;ratioP1;P2;durP2;ratioP2
52816;SDS011;38687;43.330;21.924;2023-03-01T05:26:54;16.70;;;9.13;;
52816;SDS011;38687;43.330;21.924;2023-03-01T05:29:22;17.10;;;9.50;;
52816;SDS011;38687;43.330;21.924;2023-03-01T05:31:59;19.42;;;9.88;;
52816;SDS011;38687;43.330;21.924;2023-03-01T05:34:26;18.52;;;9.07;;
52816;SDS011;38687;43.330;21.924;2023-03-01T05:36:54;16.77;;;9.20;;
52816;SDS011;38687;43.330;21.924;2023-03-01T05:39:20;21.07;;;10.87;;
52816;SDS011;38687;43.330;21.924;2023-03-01T05:41:47;20.73;;;9.73;;
52816;SDS011;38687;43.330;21.924;2023-03-01T05:44:13;23.08;;;11.13;;
52816;SDS011;38687;43.330;21.924;2023-03-01T05:46:38;18.88;;;11.25;;
52816;SDS011;38687;43.330;21.924;2023-03-01T05:49:03;23.58;;;10.95;;
52816;SDS011;38687;43.330;21.924;2023-03-01T05:51:29;17.25;;;10.05;;
52816;SDS011;38687;43.330;21.924;2023-03-01T05:53:54;16.85;;;10.38;;
52816;SDS011;38687;43.330;21.924;2023-03-01T05:56:19;23.23;;;9.48;;
52816;SDS011;38687;43.330;21.924;2023-03-01T05:58:47;18.25;;;10.27;;
52816;SDS011;38687;43.330;21.924;2023-03-01T06:01:13;24.60;;;14.55;;
52816;SDS011;38687;43.330;21.924;2023-03-01T06:03:38;28.70;;;16.17;;
52816;SDS011;38687;43.330;21.924;2023-03-01T06:06:03;28.38;;;15.60;;
52816;SDS011;38687;43.330;21.924;2023-03-01T06:08:29;20.65;;;13.68;;
52816;SDS011;38687;43.330;21.924;2023-03-01T06:10:54;17.83;;;10.02;;
52816;SDS011;38687;43.330;21.924;2023-03-01T06:13:19;18.48;;;10.90;;
52816;SDS011;38687;43.330;21.924;2023-03-01T06:15:45;11.68;;;7.43;;
52816;SDS011;38687;43.330;21.924;2023-03-01T06:18:10;9.70;;;6.50;;
52816;SDS011;38687;43.330;21.924;2023-03-01T06:20:35;13.30;;;7.87;;
52816;SDS011;38687;43.330;21.924;2023-03-01T06:23:00;18.30;;;9.38;;
52816;SDS011;38687;43.330;21.924;2023-03-01T06:25:26;16.15;;;10.35;;
52816;SDS011;38687;43.330;21.924;2023-03-01T06:27:52;19.00;;;12.73;;
52816;SDS011;38687;43.330;21.924;2023-03-01T06:30:18;14.82;;;8.73;;
52816;SDS011;38687;43.330;21.924;2023-03-01T06:32:44;14.25;;;8.40;;
52816;SDS011;38687;43.330;21.924;2023-03-01T06:35:10;21.73;;;13.27;;
52816;SDS011;38687;43.330;21.924;2023-03-01T06:37:35;16.80;;;8.60;;
52816;SDS011;38687;43.330;21.924;2023-03-01T06:40:01;14.80;;;8.98;;
52816;SDS011;38687;43.330;21.924;2023-03-01T06:42:34;15.15;;;8.85;;
52816;SDS011;38687;43.330;21.924;2023-03-01T06:44:59;10.88;;;5.38;;
52816;SDS011;38687;43.330;21.924;2023-03-01T06:47:24;12.17;;;7.47;;
52816;SDS011;38687;43.330;21.924;2023-03-01T06:49:49;15.43;;;8.53;;
52816;SDS011;38687;43.330;21.924;2023-03-01T06:52:14;10.23;;;5.80;;
52816;SDS011;38687;43.330;21.924;2023-03-01T06:54:40;14.05;;;7.40;;
52816;SDS011;38687;43.330;21.924;2023-03-01T06:57:05;15.98;;;8.68;;
52816;SDS011;38687;43.330;21.924;2023-03-01T06:59:30;12.60;;;7.68;;
52816;SDS011;38687;43.330;21.924;2023-03-01T07:01:56;9.05;;;5.70;;
52816;SDS011;38687;43.330;21.924;2023-03-01T07:04:21;10.07;;;6.85;;
52816;SDS011;38687;43.330;21.924;2023-03-01T07:06:48;8.25;;;6.03;;
52816;SDS011;38687;43.330;21.924;2023-03-01T07:09:19;11.40;;;7.32;;
52816;SDS011;38687;43.330;21.924;2023-03-01T07:11:47;20.63;;;14.40;;
52816;SDS011;38687;43.330;21.924;2023-03-01T07:14:12;8.40;;;5.65;;
52816;SDS011;38687;43.330;21.924;2023-03-01T07:16:37;22.97;;;12.40;;
52816;SDS011;38687;43.330;21.924;2023-03-01T07:19:02;9.67;;;5.90;;
52816;SDS011;38687;43.330;21.924;2023-03-01T07:21:28;12.25;;;8.45;;
52816;SDS011;38687;43.330;21.924;2023-03-01T07:23:53;6.57;;;4.07;;
52816;SDS011;38687;43.330;21.924;2023-03-01T07:26:18;13.03;;;7.17;;
52816;SDS011;38687;43.330;21.924;2023-03-01T07:28:43;12.80;;;8.10;;
52816;SDS011;38687;43.330;21.924;2023-03-01T07:31:08;14.63;;;8.97;;
52816;SDS011;38687;43.330;21.924;2023-03-01T07:33:34;17.50;;;11.67;;
52816;SDS011;38687;43.330;21.924;2023-03-01T07:36:00;15.07;;;9.05;;
52816;SDS011;38687;43.330;21.924;2023-03-01T07:38:25;14.30;;;7.70;;
52816;SDS011;38687;43.330;21.924;2023-03-01T07:40:51;14.70;;;8.60;;
52816;SDS011;38687;43.330;21.924;2023-03-01T07:43:16;39.22;;;18.67;;
52816;SDS011;38687;43.330;21.924;2023-03-01T07:45:41;33.55;;;17.70;;
52816;SDS011;38687;43.330;21.924;2023-03-01T07:48:06;24.43;;;14.37;;
52816;SDS011;38687;43.330;21.924;2023-03-01T07:50:31;25.13;;;14.97;;
52816;SDS011;38687;43.330;21.924;2023-03-01T07:52:57;34.10;;;18.80;;
52816;SDS011;38687;43.330;21.924;2023-03-01T07:55:22;24.50;;;14.60;;
52816;SDS011;38687;43.330;21.924;2023-03-01T07:57:47;27.48;;;14.02;;
52816;SDS011;38687;43.330;21.924;2023-03-01T08:00:13;13.50;;;7.77;;
52816;SDS011;38687;43.330;21.924;2023-03-01T08:02:38;17.58;;;10.65;;
52816;SDS011;38687;43.330;21.924;2023-03-01T08:05:05;12.80;;;7.90;;
52816;SDS011;38687;43.330;21.924;2023-03-01T08:07:30;16.83;;;11.27;;
52816;SDS011;38687;43.330;21.924;2023-03-01T08:09:55;21.25;;;15.68;;
52816;SDS011;38687;43.330;21.924;2023-03-01T08:12:21;13.32;;;8.30;;
52816;SDS011;38687;43.330;21.924;2023-03-01T08:14:46;4.93;;;3.42;;
52816;SDS011;38687;43.330;21.924;2023-03-01T08:17:13;7.43;;;4.60;;
52816;SDS011;38687;43.330;21.924;2023-03-01T08:19:38;8.48;;;5.57;;
52816;SDS011;38687;43.330;21.924;2023-03-01T08:22:03;7.87;;;4.97;;
52816;SDS011;38687;43.330;21.924;2023-03-01T08:24:29;10.88;;;6.25;;
52816;SDS011;38687;43.330;21.924;2023-03-01T08:26:54;18.23;;;9.07;;
52816;SDS011;38687;43.330;21.924;2023-03-01T08:29:20;15.10;;;9.00;;
52816;SDS011;38687;43.330;21.924;2023-03-01T08:31:45;10.35;;;6.13;;
52816;SDS011;38687;43.330;21.924;2023-03-01T08:34:11;16.30;;;10.57;;
52816;SDS011;38687;43.330;21.924;2023-03-01T08:36:38;8.10;;;5.72;;
52816;SDS011;38687;43.330;21.924;2023-03-01T08:39:04;7.28;;;4.38;;
52816;SDS011;38687;43.330;21.924;2023-03-01T08:41:30;12.70;;;6.70;;
52816;SDS011;38687;43.330;21.924;2023-03-01T08:43:55;11.23;;;6.50;;
52816;SDS011;38687;43.330;21.924;2023-03-01T08:46:24;9.93;;;6.50;;
52816;SDS011;38687;43.330;21.924;2023-03-01T08:48:49;17.88;;;8.98;;
52816;SDS011;38687;43.330;21.924;2023-03-01T08:51:18;12.45;;;7.22;;
52816;SDS011;38687;43.330;21.924;2023-03-01T08:53:44;14.25;;;7.57;;
52816;SDS011;38687;43.330;21.924;2023-03-01T08:56:10;8.95;;;4.82;;
52816;SDS011;38687;43.330;21.924;2023-03-01T08:58:35;7.75;;;4.45;;
52816;SDS011;38687;43.330;21.924;2023-03-01T09:01:00;5.45;;;4.18;;
52816;SDS011;38687;43.330;21.924;2023-03-01T09:03:26;10.93;;;6.75;;
52816;SDS011;38687;43.330;21.924;2023-03-01T09:05:52;5.65;;;4.25;;
52816;SDS011;38687;43.330;21.924;2023-03-01T09:08:18;5.35;;;3.75;;
52816;SDS011;38687;43.330;21.924;2023-03-01T09:10:43;6.32;;;3.95;;
52816;SDS011;38687;43.330;21.924;2023-03-01T09:13:08;7.80;;;5.53;;
52816;SDS011;38687;43.330;21.924;2023-03-01T09:15:33;16.33;;;8.18;;
52816;SDS011;38687;43.330;21.924;2023-03-01T09:17:59;83.65;;;40.78;;
52816;SDS011;38687;43.330;21.924;2023-03-01T09:20:24;19.15;;;13.80;;
52816;SDS011;38687;43.330;21.924;2023-03-01T09:22:49;8.63;;;5.55;;
52816;SDS011;38687;43.330;21.924;2023-03-01T09:25:15;7.67;;;6.60;;
52816;SDS011;38687;43.330;21.924;2023-03-01T09:27:40;9.05;;;5.10;;
52816;SDS011;38687;43.330;21.924;2023-03-01T09:30:05;8.43;;;5.50;;
52816;SDS011;38687;43.330;21.924;2023-03-01T09:32:31;7.68;;;5.22;;
52816;SDS011;38687;43.330;21.924;2023-03-01T09:34:56;10.35;;;6.18;;
52816;SDS011;38687;43.330;21.924;2023-03-01T09:37:34;5.65;;;4.05;;
52816;SDS011;38687;43.330;21.924;2023-03-01T09:39:59;5.20;;;3.67;;
52816;SDS011;38687;43.330;21.924;2023-03-01T09:42:25;4.97;;;4.32;;
52816;SDS011;38687;43.330;21.924;2023-03-01T09:47:17;5.20;;;4.07;;
52816;SDS011;38687;43.330;21.924;2023-03-01T09:49:43;5.72;;;5.10;;
52816;SDS011;38687;43.330;21.924;2023-03-01T09:54:57;12.38;;;6.80;;
52816;SDS011;38687;43.330;21.924;2023-03-01T10:00:00;7.40;;;4.60;;
52816;SDS011;38687;43.330;21.924;2023-03-01T10:04:55;9.50;;;5.37;;
52816;SDS011;38687;43.330;21.924;2023-03-01T10:09:51;8.93;;;5.22;;
52816;SDS011;38687;43.330;21.924;2023-03-01T10:12:17;6.70;;;4.40;;
52816;SDS011;38687;43.330;21.924;2023-03-01T10:14:46;8.15;;;4.28;;
52816;SDS011;38687;43.330;21.924;2023-03-01T10:17:24;8.70;;;5.65;;
52816;SDS011;38687;43.330;21.924;2023-03-01T10:19:50;6.03;;;3.78;;
52816;SDS011;38687;43.330;21.924;2023-03-01T10:22:20;5.28;;;3.70;;
52816;SDS011;38687;43.330;21.924;2023-03-01T10:24:48;7.45;;;4.97;;
52816;SDS011;38687;43.330;21.924;2023-03-01T10:27:19;6.30;;;3.65;;
52816;SDS011;38687;43.330;21.924;2023-03-01T10:29:58;5.22;;;3.22;;
52816;SDS011;38687;43.330;21.924;2023-03-01T10:32:27;5.82;;;3.63;;
52816;SDS011;38687;43.330;21.924;2023-03-01T10:34:53;4.82;;;3.15;;
52816;SDS011;38687;43.330;21.924;2023-03-01T10:37:19;3.65;;;2.40;;
52816;SDS011;38687;43.330;21.924;2023-03-01T10:39:56;32.58;;;17.83;;
52816;SDS011;38687;43.330;21.924;2023-03-01T10:42:27;9.10;;;5.65;;
52816;SDS011;38687;43.330;21.924;2023-03-01T10:44:52;13.60;;;8.00;;
52816;SDS011;38687;43.330;21.924;2023-03-01T10:47:22;13.40;;;7.33;;
52816;SDS011;38687;43.330;21.924;2023-03-01T10:50:02;7.82;;;5.32;;
52816;SDS011;38687;43.330;21.924;2023-03-01T10:54:55;12.80;;;7.93;;
52816;SDS011;38687;43.330;21.924;2023-03-01T10:57:29;10.00;;;5.65;;
52816;SDS011;38687;43.330;21.924;2023-03-01T11:00:10;10.40;;;6.15;;
52816;SDS011;38687;43.330;21.924;2023-03-01T11:02:40;6.43;;;4.83;;
52816;SDS011;38687;43.330;21.924;2023-03-01T11:05:16;9.93;;;5.32;;
52816;SDS011;38687;43.330;21.924;2023-03-01T11:07:49;10.10;;;6.47;;
52816;SDS011;38687;43.330;21.924;2023-03-01T11:10:18;9.45;;;5.38;;
52816;SDS011;38687;43.330;21.924;2023-03-01T11:12:44;12.63;;;6.43;;
52816;SDS011;38687;43.330;21.924;2023-03-01T11:15:19;11.15;;;6.72;;
52816;SDS011;38687;43.330;21.924;2023-03-01T11:17:45;7.82;;;5.07;;
52816;SDS011;38687;43.330;21.924;2023-03-01T11:22:53;7.03;;;4.78;;
52816;SDS011;38687;43.330;21.924;2023-03-01T11:25:20;7.82;;;5.38;;
52816;SDS011;38687;43.330;21.924;2023-03-01T11:27:48;5.85;;;3.58;;
52816;SDS011;38687;43.330;21.924;2023-03-01T11:30:21;9.18;;;6.10;;
52816;SDS011;38687;43.330;21.924;2023-03-01T11:33:01;8.57;;;4.90;;
52816;SDS011;38687;43.330;21.924;2023-03-01T11:35:28;10.10;;;5.93;;
52816;SDS011;38687;43.330;21.924;2023-03-01T11:40:24;7.20;;;3.33;;
52816;SDS011;38687;43.330;21.924;2023-03-01T11:42:59;5.55;;;3.47;;
52816;SDS011;38687;43.330;21.924;2023-03-01T11:45:29;9.50;;;5.80;;
52816;SDS011;38687;43.330;21.924;2023-03-01T11:50:26;7.45;;;4.30;;
52816;SDS011;38687;43.330;21.924;2023-03-01T11:55:30;17.65;;;7.90;;
52816;SDS011;38687;43.330;21.924;2023-03-01T12:00:49;16.48;;;9.25;;
52816;SDS011;38687;43.330;21.924;2023-03-01T12:08:42;12.63;;;7.22;;
52816;SDS011;38687;43.330;21.924;2023-03-01T12:26:42;11.88;;;7.97;;
52816;SDS011;38687;43.330;21.924;2023-03-01T12:29:18;33.47;;;16.55;;
52816;SDS011;38687;43.330;21.924;2023-03-01T12:50:57;23.38;;;11.77;;
52816;SDS011;38687;43.330;21.924;2023-03-01T12:53:25;10.82;;;6.93;;
52816;SDS011;38687;43.330;21.924;2023-03-01T12:56:01;14.50;;;9.38;;
52816;SDS011;38687;43.330;21.924;2023-03-01T13:06:08;11.10;;;7.57;;
52816;SDS011;38687;43.330;21.924;2023-03-01T13:11:11;9.95;;;6.28;;
52816;SDS011;38687;43.330;21.924;2023-03-01T13:13:40;13.48;;;7.93;;
52816;SDS011;38687;43.330;21.924;2023-03-01T13:18:49;35.28;;;18.00;;
52816;SDS011;38687;43.330;21.924;2023-03-01T13:21:14;13.70;;;8.70;;
52816;SDS011;38687;43.330;21.924;2023-03-01T13:23:53;49.95;;;26.27;;
52816;SDS011;38687;43.330;21.924;2023-03-01T13:26:19;27.33;;;14.55;;
52816;SDS011;38687;43.330;21.924;2023-03-01T13:36:09;18.27;;;9.25;;
52816;SDS011;38687;43.330;21.924;2023-03-01T13:38:44;20.55;;;10.82;;
52816;SDS011;38687;43.330;21.924;2023-03-01T13:41:10;32.97;;;15.35;;
52816;SDS011;38687;43.330;21.924;2023-03-01T13:43:37;17.50;;;11.82;;
52816;SDS011;38687;43.330;21.924;2023-03-01T13:46:21;17.00;;;10.70;;
52816;SDS011;38687;43.330;21.924;2023-03-01T13:48:51;15.13;;;8.90;;
52816;SDS011;38687;43.330;21.924;2023-03-01T13:51:20;17.77;;;11.23;;
52816;SDS011;38687;43.330;21.924;2023-03-01T13:53:46;16.33;;;11.30;;
52816;SDS011;38687;43.330;21.924;2023-03-01T13:56:17;12.52;;;9.23;;
52816;SDS011;38687;43.330;21.924;2023-03-01T13:58:44;14.90;;;10.32;;
52816;SDS011;38687;43.330;21.924;2023-03-01T14:01:21;25.35;;;15.93;;
52816;SDS011;38687;43.330;21.924;2023-03-01T14:03:47;23.75;;;14.55;;
52816;SDS011;38687;43.330;21.924;2023-03-01T14:06:14;15.43;;;8.43;;
52816;SDS011;38687;43.330;21.924;2023-03-01T14:08:40;14.40;;;9.02;;
52816;SDS011;38687;43.330;21.924;2023-03-01T14:21:09;21.45;;;14.15;;
52816;SDS011;38687;43.330;21.924;2023-03-01T14:23:34;20.52;;;14.73;;
52816;SDS011;38687;43.330;21.924;2023-03-01T14:26:01;12.23;;;8.13;;
52816;SDS011;38687;43.330;21.924;2023-03-01T14:28:33;14.40;;;8.90;;
52816;SDS011;38687;43.330;21.924;2023-03-01T14:31:02;16.58;;;11.02;;
52816;SDS011;38687;43.330;21.924;2023-03-01T14:33:28;15.45;;;10.35;;
52816;SDS011;38687;43.330;21.924;2023-03-01T14:38:23;16.48;;;10.95;;
52816;SDS011;38687;43.330;21.924;2023-03-01T14:40:49;10.15;;;7.35;;
52816;SDS011;38687;43.330;21.924;2023-03-01T14:43:17;9.73;;;7.15;;
52816;SDS011;38687;43.330;21.924;2023-03-01T14:45:48;15.55;;;10.25;;
52816;SDS011;38687;43.330;21.924;2023-03-01T14:48:14;12.93;;;8.65;;
52816;SDS011;38687;43.330;21.924;2023-03-01T14:50:41;12.73;;;8.02;;
52816;SDS011;38687;43.330;21.924;2023-03-01T14:53:07;11.18;;;7.95;;
52816;SDS011;38687;43.330;21.924;2023-03-01T14:55:38;25.02;;;16.27;;
52816;SDS011;38687;43.330;21.924;2023-03-01T14:58:12;19.70;;;13.18;;
52816;SDS011;38687;43.330;21.924;2023-03-01T15:00:38;32.05;;;21.05;;
52816;SDS011;38687;43.330;21.924;2023-03-01T15:03:14;14.45;;;10.07;;
52816;SDS011;38687;43.330;21.924;2023-03-01T15:05:42;8.95;;;5.90;;
52816;SDS011;38687;43.330;21.924;2023-03-01T15:08:11;19.67;;;11.73;;
52816;SDS011;38687;43.330;21.924;2023-03-01T15:10:54;13.80;;;9.88;;
52816;SDS011;38687;43.330;21.924;2023-03-01T15:13:24;13.82;;;10.60;;
52816;SDS011;38687;43.330;21.924;2023-03-01T15:15:50;14.95;;;11.02;;
52816;SDS011;38687;43.330;21.924;2023-03-01T15:18:20;13.80;;;10.52;;
52816;SDS011;38687;43.330;21.924;2023-03-01T15:20:46;13.52;;;9.75;;
52816;SDS011;38687;43.330;21.924;2023-03-01T15:23:25;21.73;;;13.80;;
52816;SDS011;38687;43.330;21.924;2023-03-01T15:25:52;24.25;;;15.00;;
52816;SDS011;38687;43.330;21.924;2023-03-01T15:28:28;24.55;;;14.48;;
52816;SDS011;38687;43.330;21.924;2023-03-01T15:30:55;33.15;;;19.98;;
52816;SDS011;38687;43.330;21.924;2023-03-01T15:35:52;21.67;;;11.00;;
52816;SDS011;38687;43.330;21.924;2023-03-01T15:40:49;19.15;;;11.63;;
52816;SDS011;38687;43.330;21.924;2023-03-01T15:43:36;19.10;;;12.05;;
52816;SDS011;38687;43.330;21.924;2023-03-01T15:46:00;17.67;;;10.63;;
52816;SDS011;38687;43.330;21.924;2023-03-01T15:48:26;28.90;;;14.43;;
52816;SDS011;38687;43.330;21.924;2023-03-01T15:50:55;24.00;;;13.80;;
52816;SDS011;38687;43.330;21.924;2023-03-01T15:53:21;21.90;;;12.98;;
52816;SDS011;38687;43.330;21.924;2023-03-01T15:55:47;19.98;;;12.32;;
52816;SDS011;38687;43.330;21.924;2023-03-01T15:58:22;29.67;;;18.45;;
52816;SDS011;38687;43.330;21.924;2023-03-01T16:00:47;22.40;;;12.95;;
52816;SDS011;38687;43.330;21.924;2023-03-01T16:03:13;28.05;;;17.92;;
52816;SDS011;38687;43.330;21.924;2023-03-01T16:05:39;33.42;;;21.05;;
52816;SDS011;38687;43.330;21.924;2023-03-01T16:08:04;90.03;;;50.27;;
52816;SDS011;38687;43.330;21.924;2023-03-01T16:10:33;36.17;;;23.20;;
52816;SDS011;38687;43.330;21.924;2023-03-01T16:12:59;25.83;;;17.05;;
52816;SDS011;38687;43.330;21.924;2023-03-01T16:15:25;21.00;;;13.73;;
52816;SDS011;38687;43.330;21.924;2023-03-01T16:17:52;20.35;;;12.30;;
52816;SDS011;38687;43.330;21.924;2023-03-01T16:20:18;30.05;;;19.10;;
52816;SDS011;38687;43.330;21.924;2023-03-01T16:22:44;21.00;;;13.18;;
52816;SDS011;38687;43.330;21.924;2023-03-01T16:25:10;27.15;;;16.30;;
52816;SDS011;38687;43.330;21.924;2023-03-01T16:27:35;23.60;;;16.30;;
52816;SDS011;38687;43.330;21.924;2023-03-01T16:30:01;27.42;;;17.67;;
52816;SDS011;38687;43.330;21.924;2023-03-01T16:32:26;25.10;;;17.08;;
52816;SDS011;38687;43.330;21.924;2023-03-01T16:34:51;33.17;;;19.83;;
52816;SDS011;38687;43.330;21.924;2023-03-01T16:37:16;24.13;;;14.93;;
52816;SDS011;38687;43.330;21.924;2023-03-01T16:39:44;13.35;;;8.38;;
52816;SDS011;38687;43.330;21.924;2023-03-01T16:42:09;17.67;;;11.52;;
52816;SDS011;38687;43.330;21.924;2023-03-01T16:44:34;16.90;;;9.27;;
52816;SDS011;38687;43.330;21.924;2023-03-01T16:46:59;21.97;;;14.27;;
52816;SDS011;38687;43.330;21.924;2023-03-01T16:49:24;51.53;;;26.93;;
52816;SDS011;38687;43.330;21.924;2023-03-01T16:51:50;19.47;;;11.67;;
52816;SDS011;38687;43.330;21.924;2023-03-01T16:54:15;31.55;;;20.45;;
52816;SDS011;38687;43.330;21.924;2023-03-01T16:56:40;44.55;;;23.33;;
52816;SDS011;38687;43.330;21.924;2023-03-01T16:59:06;24.80;;;14.55;;
52816;SDS011;38687;43.330;21.924;2023-03-01T17:01:31;29.20;;;15.23;;
52816;SDS011;38687;43.330;21.924;2023-03-01T17:04:02;13.32;;;9.88;;
52816;SDS011;38687;43.330;21.924;2023-03-01T17:06:27;15.20;;;10.50;;
52816;SDS011;38687;43.330;21.924;2023-03-01T17:08:53;23.40;;;12.15;;
52816;SDS011;38687;43.330;21.924;2023-03-01T17:11:18;12.37;;;9.73;;
52816;SDS011;38687;43.330;21.924;2023-03-01T17:13:44;30.75;;;16.10;;
52816;SDS011;38687;43.330;21.924;2023-03-01T17:16:11;35.58;;;17.83;;
52816;SDS011;38687;43.330;21.924;2023-03-01T17:18:36;13.77;;;9.65;;
52816;SDS011;38687;43.330;21.924;2023-03-01T17:21:05;16.33;;;8.88;;
52816;SDS011;38687;43.330;21.924;2023-03-01T17:23:31;13.68;;;8.95;;
52816;SDS011;38687;43.330;21.924;2023-03-01T17:25:57;17.55;;;11.73;;
52816;SDS011;38687;43.330;21.924;2023-03-01T17:28:23;25.42;;;14.98;;
52816;SDS011;38687;43.330;21.924;2023-03-01T17:30:49;20.85;;;12.57;;
52816;SDS011;38687;43.330;21.924;2023-03-01T17:33:14;19.95;;;12.18;;
52816;SDS011;38687;43.330;21.924;2023-03-01T17:35:39;24.93;;;14.93;;
52816;SDS011;38687;43.330;21.924;2023-03-01T17:38:06;38.27;;;21.97;;
52816;SDS011;38687;43.330;21.924;2023-03-01T17:40:31;73.88;;;44.25;;
52816;SDS011;38687;43.330;21.924;2023-03-01T17:42:57;35.92;;;24.88;;
52816;SDS011;38687;43.330;21.924;2023-03-01T17:45:22;20.83;;;13.60;;
52816;SDS011;38687;43.330;21.924;2023-03-01T17:47:47;24.33;;;14.10;;
52816;SDS011;38687;43.330;21.924;2023-03-01T17:50:13;30.52;;;16.75;;
52816;SDS011;38687;43.330;21.924;2023-03-01T17:52:38;20.80;;;10.93;;
52816;SDS011;38687;43.330;21.924;2023-03-01T17:55:03;68.17;;;28.67;;
52816;SDS011;38687;43.330;21.924;2023-03-01T17:57:29;31.90;;;16.73;;
52816;SDS011;38687;43.330;21.924;2023-03-01T17:59:54;25.35;;;16.83;;
52816;SDS011;38687;43.330;21.924;2023-03-01T18:02:19;20.45;;;12.18;;
52816;SDS011;38687;43.330;21.924;2023-03-01T18:04:45;33.90;;;18.70;;
52816;SDS011;38687;43.330;21.924;2023-03-01T18:07:10;34.33;;;19.65;;
52816;SDS011;38687;43.330;21.924;2023-03-01T18:09:35;21.90;;;15.53;;
52816;SDS011;38687;43.330;21.924;2023-03-01T18:12:00;25.55;;;15.32;;
52816;SDS011;38687;43.330;21.924;2023-03-01T18:14:26;30.92;;;19.50;;
52816;SDS011;38687;43.330;21.924;2023-03-01T18:16:53;17.40;;;13.57;;
52816;SDS011;38687;43.330;21.924;2023-03-01T18:19:19;30.33;;;17.55;;
52816;SDS011;38687;43.330;21.924;2023-03-01T18:21:45;29.33;;;19.30;;
52816;SDS011;38687;43.330;21.924;2023-03-01T18:24:10;25.20;;;16.10;;
52816;SDS011;38687;43.330;21.924;2023-03-01T18:26:35;24.43;;;17.33;;
52816;SDS011;38687;43.330;21.924;2023-03-01T18:29:00;36.47;;;19.83;;
52816;SDS011;38687;43.330;21.924;2023-03-01T18:31:28;37.08;;;21.70;;
52816;SDS011;38687;43.330;21.924;2023-03-01T18:33:57;32.35;;;19.83;;
52816;SDS011;38687;43.330;21.924;2023-03-01T18:36:23;41.75;;;23.40;;
52816;SDS011;38687;43.330;21.924;2023-03-01T18:38:49;38.72;;;22.83;;
52816;SDS011;38687;43.330;21.924;2023-03-01T18:41:14;46.10;;;24.85;;
52816;SDS011;38687;43.330;21.924;2023-03-01T18:43:40;72.20;;;37.60;;
52816;SDS011;38687;43.330;21.924;2023-03-01T18:46:05;44.83;;;26.38;;
52816;SDS011;38687;43.330;21.924;2023-03-01T18:48:31;57.45;;;30.63;;
52816;SDS011;38687;43.330;21.924;2023-03-01T18:50:56;38.47;;;20.25;;
52816;SDS011;38687;43.330;21.924;2023-03-01T18:53:22;41.33;;;24.13;;
52816;SDS011;38687;43.330;21.924;2023-03-01T18:55:47;36.00;;;22.40;;
52816;SDS011;38687;43.330;21.924;2023-03-01T18:58:12;27.97;;;15.57;;
52816;SDS011;38687;43.330;21.924;2023-03-01T19:00:37;28.77;;;16.70;;
52816;SDS011;38687;43.330;21.924;2023-03-01T19:03:03;32.60;;;19.63;;
52816;SDS011;38687;43.330;21.924;2023-03-01T19:05:31;36.95;;;20.58;;
52816;SDS011;38687;43.330;21.924;2023-03-01T19:07:56;25.35;;;16.00;;
52816;SDS011;38687;43.330;21.924;2023-03-01T19:10:22;29.75;;;18.95;;
52816;SDS011;38687;43.330;21.924;2023-03-01T19:12:50;29.17;;;17.25;;
52816;SDS011;38687;43.330;21.924;2023-03-01T19:15:16;18.50;;;12.35;;
52816;SDS011;38687;43.330;21.924;2023-03-01T19:17:42;24.90;;;15.85;;
52816;SDS011;38687;43.330;21.924;2023-03-01T19:20:07;29.10;;;18.45;;
52816;SDS011;38687;43.330;21.924;2023-03-01T19:22:32;29.88;;;19.08;;
52816;SDS011;38687;43.330;21.924;2023-03-01T19:25:01;37.08;;;21.98;;
52816;SDS011;38687;43.330;21.924;2023-03-01T19:27:26;25.67;;;14.85;;
52816;SDS011;38687;43.330;21.924;2023-03-01T19:29:54;30.53;;;16.37;;
52816;SDS011;38687;43.330;21.924;2023-03-01T19:32:19;29.17;;;15.70;;
52816;SDS011;38687;43.330;21.924;2023-03-01T19:34:45;33.15;;;18.92;;
52816;SDS011;38687;43.330;21.924;2023-03-01T19:37:10;31.42;;;18.98;;
52816;SDS011;38687;43.330;21.924;2023-03-01T19:39:36;33.53;;;18.55;;
52816;SDS011;38687;43.330;21.924;2023-03-01T19:42:01;40.13;;;24.08;;
52816;SDS011;38687;43.330;21.924;2023-03-01T19:44:26;46.35;;;27.60;;
52816;SDS011;38687;43.330;21.924;2023-03-01T19:46:52;50.85;;;26.77;;
52816;SDS011;38687;43.330;21.924;2023-03-01T19:49:17;61.20;;;31.63;;
52816;SDS011;38687;43.330;21.924;2023-03-01T19:51:43;32.38;;;18.58;;
52816;SDS011;38687;43.330;21.924;2023-03-01T19:54:08;110.13;;;46.47;;
52816;SDS011;38687;43.330;21.924;2023-03-01T19:56:35;33.45;;;21.10;;
52816;SDS011;38687;43.330;21.924;2023-03-01T19:59:07;29.33;;;17.08;;
52816;SDS011;38687;43.330;21.924;2023-03-01T20:01:32;43.45;;;25.75;;
52816;SDS011;38687;43.330;21.924;2023-03-01T20:04:01;84.88;;;47.58;;
52816;SDS011;38687;43.330;21.924;2023-03-01T20:06:27;78.68;;;43.25;;
52816;SDS011;38687;43.330;21.924;2023-03-01T20:08:53;48.30;;;28.58;;
52816;SDS011;38687;43.330;21.924;2023-03-01T20:11:19;38.95;;;21.90;;
52816;SDS011;38687;43.330;21.924;2023-03-01T20:13:45;38.33;;;22.27;;
52816;SDS011;38687;43.330;21.924;2023-03-01T20:16:10;29.27;;;15.45;;
52816;SDS011;38687;43.330;21.924;2023-03-01T20:18:36;18.42;;;10.43;;
52816;SDS011;38687;43.330;21.924;2023-03-01T20:21:01;25.33;;;14.20;;
52816;SDS011;38687;43.330;21.924;2023-03-01T20:23:27;28.52;;;16.30;;
52816;SDS011;38687;43.330;21.924;2023-03-01T20:25:59;38.42;;;20.55;;
52816;SDS011;38687;43.330;21.924;2023-03-01T20:28:25;30.77;;;18.08;;
52816;SDS011;38687;43.330;21.924;2023-03-01T20:30:50;39.00;;;20.20;;
52816;SDS011;38687;43.330;21.924;2023-03-01T20:33:15;46.45;;;22.58;;
52816;SDS011;38687;43.330;21.924;2023-03-01T20:35:41;36.43;;;20.20;;
52816;SDS011;38687;43.330;21.924;2023-03-01T20:38:09;24.77;;;14.43;;
52816;SDS011;38687;43.330;21.924;2023-03-01T20:40:35;28.80;;;15.52;;
52816;SDS011;38687;43.330;21.924;2023-03-01T20:43:01;28.55;;;16.05;;
52816;SDS011;38687;43.330;21.924;2023-03-01T20:45:26;22.58;;;12.35;;
52816;SDS011;38687;43.330;21.924;2023-03-01T20:47:51;21.98;;;12.70;;
52816;SDS011;38687;43.330;21.924;2023-03-01T20:50:17;17.52;;;11.43;;
52816;SDS011;38687;43.330;21.924;2023-03-01T20:52:42;16.58;;;10.60;;
52816;SDS011;38687;43.330;21.924;2023-03-01T20:55:08;10.57;;;7.05;;
52816;SDS011;38687;43.330;21.924;2023-03-01T20:57:35;15.57;;;9.52;;
52816;SDS011;38687;43.330;21.924;2023-03-01T21:00:06;15.65;;;9.90;;
52816;SDS011;38687;43.330;21.924;2023-03-01T21:02:32;14.52;;;8.13;;
52816;SDS011;38687;43.330;21.924;2023-03-01T21:05:00;16.73;;;9.73;;
52816;SDS011;38687;43.330;21.924;2023-03-01T21:07:25;19.83;;;10.70;;
52816;SDS011;38687;43.330;21.924;2023-03-01T21:09:50;16.92;;;9.65;;
52816;SDS011;38687;43.330;21.924;2023-03-01T21:12:16;15.97;;;8.60;;
52816;SDS011;38687;43.330;21.924;2023-03-01T21:14:42;15.55;;;8.85;;
52816;SDS011;38687;43.330;21.924;2023-03-01T21:17:12;13.02;;;8.43;;
52816;SDS011;38687;43.330;21.924;2023-03-01T21:19:38;18.15;;;11.68;;
52816;SDS011;38687;43.330;21.924;2023-03-01T21:22:03;21.38;;;12.20;;
52816;SDS011;38687;43.330;21.924;2023-03-01T21:24:29;20.02;;;11.82;;
52816;SDS011;38687;43.330;21.924;2023-03-01T21:26:55;24.88;;;13.70;;